Time;durP1;ratioP1;P1;durP2;ratioP2;P2;SDS_P1;SDS_P2;PMS_P1;PMS_P2;Temp;Humidity;BMP_temperature;BMP_pressure;BME280_temperature;BME280_humidity;BME280_pressure;Samples;Min_cycle;Max_cycle;Signal;HPM_P1;HPM_P2
2021/05/17 00:01:33;;;;;;;1.20;0.70;;;21.70;52.40;;;;;;6301580;28;20028;-67
2021/05/17 00:04:35;;;;;;;1.83;0.95;;;21.60;52.40;;;;;;6316744;28;20028;-68
2021/05/17 00:07:36;;;;;;;0.85;0.77;;;21.70;52.40;;;;;;6303513;28;20020;-67
2021/05/17 00:10:38;;;;;;;0.63;0.63;;;21.70;52.40;;;;;;6291347;28;20025;-67
2021/05/17 00:13:39;;;;;;;0.70;0.60;;;21.70;52.40;;;;;;6314225;28;20024;-67
2021/05/17 00:16:40;;;;;;;1.90;0.98;;;21.70;52.40;;;;;;6317688;28;20162;-67
2021/05/17 00:19:40;;;;;;;1.33;0.65;;;21.60;52.40;;;;;;6317538;28;20040;-67
2021/05/17 00:22:42;;;;;;;1.02;0.70;;;21.70;52.40;;;;;;6313091;28;20058;-67
2021/05/17 00:25:43;;;;;;;2.00;0.70;;;21.60;52.40;;;;;;6317713;28;20097;-67
2021/05/17 00:28:44;;;;;;;1.85;0.77;;;21.70;52.40;;;;;;6295300;28;20500;-68
2021/05/17 00:31:45;;;;;;;0.65;0.52;;;21.70;52.40;;;;;;6290800;28;20028;-67
2021/05/17 00:34:46;;;;;;;0.85;0.52;;;21.70;52.40;;;;;;6292378;28;20025;-67
2021/05/17 00:37:47;;;;;;;0.95;0.75;;;21.70;52.40;;;;;;6290842;28;20309;-67
2021/05/17 00:40:48;;;;;;;1.15;0.70;;;21.70;52.40;;;;;;6292594;28;20100;-67
2021/05/17 00:43:53;;;;;;;1.08;0.60;;;21.60;52.40;;;;;;6292035;28;20035;-67
2021/05/17 00:46:54;;;;;;;1.38;0.60;;;21.60;52.40;;;;;;6290966;28;20420;-67
2021/05/17 00:49:55;;;;;;;1.13;0.73;;;21.70;52.40;;;;;;6291385;28;20101;-67
2021/05/17 00:52:56;;;;;;;1.05;0.68;;;21.60;52.30;;;;;;6302981;28;20013;-67
2021/05/17 00:55:57;;;;;;;0.82;0.50;;;21.70;52.40;;;;;;6316817;28;20027;-68
2021/05/17 00:58:58;;;;;;;1.05;0.60;;;21.70;52.40;;;;;;6315382;28;20035;-67
2021/05/17 01:01:59;;;;;;;0.90;0.70;;;21.70;52.40;;;;;;6315661;28;20032;-67
2021/05/17 01:04:59;;;;;;;1.27;0.70;;;21.70;52.40;;;;;;6291879;28;20028;-67
2021/05/17 01:08:02;;;;;;;0.70;0.50;;;21.70;52.40;;;;;;6296453;28;20031;-67
2021/05/17 01:11:04;;;;;;;0.93;0.70;;;21.70;52.40;;;;;;6316111;28;20107;-67
2021/05/17 01:14:08;;;;;;;0.73;0.52;;;21.60;52.40;;;;;;6315463;28;20016;-68
2021/05/17 01:17:10;;;;;;;0.70;0.50;;;21.60;52.40;;;;;;6315528;28;20065;-68
2021/05/17 01:20:15;;;;;;;0.70;0.60;;;21.60;53.10;;;;;;6294143;28;20024;-68
2021/05/17 01:26:29;;;;;;;0.70;0.50;;;21.60;52.40;;;;;;6317892;28;20051;-67
2021/05/17 01:29:31;;;;;;;0.55;0.50;;;21.70;52.40;;;;;;6317181;28;20107;-67
2021/05/17 01:32:32;;;;;;;0.52;0.45;;;21.60;52.40;;;;;;6317455;28;20047;-66
2021/05/17 01:35:33;;;;;;;0.70;0.50;;;21.60;52.40;;;;;;6293303;28;20466;-66
2021/05/17 01:38:37;;;;;;;0.52;0.40;;;21.60;52.40;;;;;;6297625;28;20388;-67
2021/05/17 01:41:39;;;;;;;0.30;0.30;;;21.60;52.40;;;;;;6317644;28;20071;-67
2021/05/17 01:44:41;;;;;;;0.45;0.40;;;21.70;52.40;;;;;;6317161;28;20420;-66
2021/05/17 01:47:43;;;;;;;0.68;0.40;;;21.60;52.40;;;;;;6316702;28;20039;-67
2021/05/17 01:50:43;;;;;;;1.95;0.40;;;21.70;52.40;;;;;;6316302;28;20048;-67
2021/05/17 01:53:46;;;;;;;0.85;0.43;;;21.70;52.40;;;;;;6312096;28;20027;-67
2021/05/17 01:56:48;;;;;;;0.40;0.20;;;21.60;52.40;;;;;;6291268;28;20492;-66
2021/05/17 01:59:48;;;;;;;0.40;0.40;;;21.60;52.30;;;;;;6308782;28;20393;-67
2021/05/17 02:02:51;;;;;;;0.75;0.40;;;21.60;52.40;;;;;;6321327;28;20373;-67
2021/05/17 02:05:52;;;;;;;0.47;0.47;;;21.70;52.40;;;;;;6320554;28;20110;-67
2021/05/17 02:08:53;;;;;;;0.52;0.47;;;21.70;52.40;;;;;;6319968;28;20020;-67
2021/05/17 02:11:54;;;;;;;0.55;0.40;;;21.60;52.40;;;;;;6319758;28;20031;-66
2021/05/17 02:14:55;;;;;;;1.00;0.45;;;21.60;52.40;;;;;;6320023;28;20304;-67
2021/05/17 02:18:08;;;;;;;0.90;0.50;;;21.60;52.40;;;;;;6319799;28;20493;-67
2021/05/17 02:21:10;;;;;;;0.57;0.40;;;21.60;52.40;;;;;;6315325;28;20516;-66
2021/05/17 02:24:13;;;;;;;0.52;0.45;;;21.60;52.40;;;;;;6297345;28;20033;-66
2021/05/17 02:27:15;;;;;;;0.40;0.30;;;21.60;52.30;;;;;;6321030;28;20032;-66
2021/05/17 02:30:17;;;;;;;0.30;0.30;;;21.60;52.40;;;;;;6319809;28;20136;-67
2021/05/17 02:33:18;;;;;;;0.52;0.40;;;21.60;52.40;;;;;;6320041;28;20047;-67
2021/05/17 02:36:19;;;;;;;0.30;0.30;;;21.60;52.30;;;;;;6319969;28;20028;-67
2021/05/17 02:39:20;;;;;;;0.40;0.30;;;21.60;52.40;;;;;;6319230;28;20421;-66
2021/05/17 02:42:23;;;;;;;1.15;0.40;;;21.70;52.40;;;;;;6318393;28;20024;-66
2021/05/17 02:45:24;;;;;;;0.30;0.30;;;21.60;52.40;;;;;;6310255;28;20508;-66
2021/05/17 02:48:29;;;;;;;0.40;0.40;;;21.60;52.30;;;;;;6295916;28;20455;-67
2021/05/17 02:51:31;;;;;;;0.30;0.23;;;21.70;52.40;;;;;;6313016;28;20044;-66
2021/05/17 02:54:35;;;;;;;0.60;0.40;;;21.60;52.30;;;;;;6318834;28;20031;-67
2021/05/17 02:57:43;;;;;;;0.47;0.30;;;21.60;52.30;;;;;;6295694;28;20035;-67
2021/05/17 03:00:48;;;;;;;0.65;0.38;;;21.60;52.40;;;;;;6295788;28;20024;-68
2021/05/17 03:03:49;;;;;;;;;;;21.70;52.40;;;;;;6293528;28;20489;-67
2021/05/17 03:07:09;;;;;;;0.57;0.40;;;21.60;52.30;;;;;;6293912;28;19947;-67
2021/05/17 03:10:10;;;;;;;0.38;0.20;;;21.60;52.40;;;;;;6296325;28;20437;-68
2021/05/17 03:13:14;;;;;;;0.70;0.40;;;21.60;52.30;;;;;;6320786;28;20021;-67
2021/05/17 03:16:15;;;;;;;0.52;0.22;;;21.60;52.30;;;;;;6309103;28;20013;-66
2021/05/17 03:19:17;;;;;;;0.20;0.20;;;21.60;52.30;;;;;;6293517;28;20078;-67
2021/05/17 03:22:19;;;;;;;0.30;0.30;;;21.60;52.40;;;;;;6297776;28;20367;-67
2021/05/17 03:25:30;;;;;;;0.95;0.50;;;21.60;52.30;;;;;;6292182;28;20470;-67
2021/05/17 03:28:31;;;;;;;0.55;0.35;;;21.60;52.30;;;;;;6294286;28;20017;-67
2021/05/17 03:31:31;;;;;;;0.30;0.30;;;21.60;52.30;;;;;;6304816;28;20031;-67
2021/05/17 03:34:32;;;;;;;0.47;0.35;;;21.60;52.30;;;;;;6318524;28;20430;-68
2021/05/17 03:37:33;;;;;;;0.45;0.40;;;21.60;52.30;;;;;;6318703;28;20020;-67
2021/05/17 03:40:33;;;;;;;0.40;0.20;;;21.60;52.40;;;;;;6318271;28;20046;-66
2021/05/17 03:43:34;;;;;;;0.57;0.35;;;21.60;52.40;;;;;;6318205;28;20186;-67
2021/05/17 03:46:35;;;;;;;0.47;0.40;;;21.60;52.30;;;;;;6318053;28;20055;-68
2021/05/17 03:49:35;;;;;;;0.50;0.40;;;21.70;52.40;;;;;;6317179;28;20067;-67
2021/05/17 03:52:36;;;;;;;0.30;0.30;;;21.60;52.30;;;;;;6316092;28;20054;-68
2021/05/17 03:55:37;;;;;;;0.30;0.30;;;21.60;52.30;;;;;;6316279;28;20037;-68
2021/05/17 03:58:37;;;;;;;0.20;0.20;;;21.60;52.30;;;;;;6292328;28;20030;-68
2021/05/17 04:01:38;;;;;;;0.28;0.28;;;21.60;52.40;;;;;;6292310;28;20039;-67
2021/05/17 04:04:43;;;;;;;0.30;0.30;;;21.70;52.40;;;;;;6291532;28;20443;-68
2021/05/17 04:14:22;;;;;;;0.90;0.30;;;21.60;52.30;;;;;;6292514;28;20024;-67
2021/05/17 04:17:23;;;;;;;0.30;0.25;;;21.60;52.40;;;;;;6291670;28;20116;-67
2021/05/17 04:20:23;;;;;;;0.70;0.38;;;21.60;52.40;;;;;;6291828;28;20031;-67
2021/05/17 04:23:26;;;;;;;0.13;0.13;;;21.60;52.40;;;;;;6310023;28;20162;-69
2021/05/17 04:26:26;;;;;;;0.30;0.30;;;21.60;52.30;;;;;;6316811;28;20400;-67
2021/05/17 04:29:27;;;;;;;0.32;0.20;;;21.60;52.30;;;;;;6293341;28;20029;-67
2021/05/17 04:32:28;;;;;;;0.30;0.30;;;21.60;52.40;;;;;;6299863;28;20032;-67
2021/05/17 04:35:28;;;;;;;0.30;0.30;;;21.60;52.30;;;;;;6317307;28;20023;-66
2021/05/17 04:38:29;;;;;;;0.50;0.30;;;21.60;52.30;;;;;;6301962;28;20025;-66
2021/05/17 04:41:30;;;;;;;0.25;0.20;;;21.70;52.40;;;;;;6291913;28;20226;-67
2021/05/17 04:44:31;;;;;;;0.20;0.20;;;21.60;52.30;;;;;;6315426;28;20065;-68
2021/05/17 04:47:32;;;;;;;0.20;0.20;;;21.60;52.30;;;;;;6299781;28;20118;-67
2021/05/17 04:50:33;;;;;;;0.57;0.30;;;21.70;52.40;;;;;;6316985;28;20063;-67
2021/05/17 04:53:34;;;;;;;0.25;0.25;;;21.60;52.40;;;;;;6308538;28;20016;-68
2021/05/17 04:56:34;;;;;;;0.32;0.20;;;21.60;52.40;;;;;;6284790;28;20021;-66
2021/05/17 04:59:35;;;;;;;0.57;0.40;;;21.60;52.30;;;;;;6296528;28;20519;-67
2021/05/17 05:02:36;;;;;;;0.47;0.28;;;21.60;52.30;;;;;;6282802;28;20563;-68
2021/05/17 05:05:37;;;;;;;1.33;0.30;;;21.60;52.30;;;;;;6278076;28;20103;-68
2021/05/17 05:08:37;;;;;;;2.67;0.60;;;21.70;52.50;;;;;;6277226;28;20478;-66
2021/05/17 05:11:38;;;;;;;0.43;0.20;;;21.70;52.60;;;;;;6290614;28;20055;-70
2021/05/17 05:14:38;;;;;;;13.90;0.65;;;21.70;52.50;;;;;;6290949;28;20389;-66
2021/05/17 05:17:39;;;;;;;0.55;0.32;;;21.70;52.20;;;;;;6304122;28;20020;-66
2021/05/17 05:20:39;;;;;;;2.75;0.38;;;21.70;52.40;;;;;;6314158;28;20031;-66
2021/05/17 05:23:40;;;;;;;1.73;0.50;;;21.70;52.30;;;;;;6283910;28;20428;-66
2021/05/17 05:33:15;;;;;;;0.50;0.30;;;21.70;52.30;;;;;;6316740;28;20026;-66
2021/05/17 05:36:16;;;;;;;1.95;0.30;;;21.70;52.30;;;;;;6318959;28;20081;-66
2021/05/17 05:39:17;;;;;;;1.77;0.50;;;21.70;52.30;;;;;;6314557;28;20066;-67
2021/05/17 05:42:17;;;;;;;1.95;0.60;;;21.70;52.30;;;;;;6290323;28;20016;-67
2021/05/17 05:45:18;;;;;;;0.93;0.40;;;21.70;52.30;;;;;;6293862;28;20079;-67
2021/05/17 05:48:19;;;;;;;2.22;0.40;;;21.70;52.30;;;;;;6314770;28;20099;-67
2021/05/17 05:51:22;;;;;;;4.57;0.35;;;21.70;52.30;;;;;;6297150;28;20032;-67
2021/05/17 05:54:23;;;;;;;1.63;0.30;;;21.70;52.30;;;;;;6296964;28;20104;-66
2021/05/17 05:57:25;;;;;;;2.88;0.60;;;21.70;52.30;;;;;;6285642;28;20370;-66
2021/05/17 06:00:31;;;;;;;4.38;0.35;;;21.70;52.30;;;;;;6292064;28;20127;-67
2021/05/17 06:03:32;;;;;;;1.38;0.30;;;21.70;52.30;;;;;;6287849;28;20471;-67
2021/05/17 06:06:33;;;;;;;4.93;0.45;;;21.70;52.30;;;;;;6312699;28;20024;-67
2021/05/17 06:09:34;;;;;;;2.72;0.40;;;21.70;52.30;;;;;;6287892;28;20036;-67
2021/05/17 06:12:36;;;;;;;1.27;0.38;;;21.70;52.30;;;;;;6322785;28;20389;-67
2021/05/17 06:15:40;;;;;;;4.15;0.65;;;21.70;52.30;;;;;;6311649;28;20437;-67
2021/05/17 06:18:41;;;;;;;0.93;0.30;;;21.70;52.30;;;;;;6305902;28;20032;-67
2021/05/17 06:21:42;;;;;;;0.63;0.40;;;21.70;52.30;;;;;;6315026;28;20028;-67
2021/05/17 06:24:43;;;;;;;1.58;0.55;;;21.70;52.40;;;;;;6322107;28;20392;-66
2021/05/17 06:27:44;;;;;;;74.35;5.20;;;21.70;53.00;;;;;;6322431;28;20032;-66
2021/05/17 06:30:49;;;;;;;68.18;4.40;;;21.80;52.90;;;;;;6320878;28;20028;-66
2021/05/17 06:33:50;;;;;;;;;;;21.80;52.90;;;;;;6309417;28;20108;-66
2021/05/17 06:36:51;;;;;;;20.77;1.90;;;21.80;52.60;;;;;;6321961;28;19930;-66
2021/05/17 06:39:51;;;;;;;10.10;0.90;;;21.80;52.30;;;;;;6319476;28;20024;-66
2021/05/17 06:42:52;;;;;;;3.40;0.90;;;21.80;52.20;;;;;;6322301;28;20025;-66
2021/05/17 06:45:53;;;;;;;0.65;0.40;;;21.90;52.20;;;;;;6319741;28;20021;-66
2021/05/17 06:48:53;;;;;;;5.28;0.60;;;21.90;52.20;;;;;;6304790;28;20021;-66
2021/05/17 06:51:54;;;;;;;4.85;0.52;;;21.90;52.10;;;;;;6317344;28;20086;-66
2021/05/17 06:55:01;;;;;;;4.55;0.60;;;21.90;52.10;;;;;;6300232;28;20031;-67
2021/05/17 06:58:27;;;;;;;2.38;0.47;;;21.90;52.00;;;;;;6311474;28;20017;-66
2021/05/17 07:01:26;;;;;;;2.58;0.73;;;21.90;52.00;;;;;;6315833;28;20040;-66
2021/05/17 07:04:29;;;;;;;3.80;0.70;;;21.90;52.00;;;;;;6321264;28;20021;-66
2021/05/17 07:07:49;;;;;;;1.42;0.40;;;21.90;52.00;;;;;;6312801;28;20031;-67
2021/05/17 07:14:08;;;;;;;3.42;0.40;;;21.90;52.10;;;;;;6293049;28;20470;-66
2021/05/17 07:17:09;;;;;;;2.20;0.75;;;21.90;52.10;;;;;;6293887;28;20024;-66
2021/05/17 07:20:11;;;;;;;2.58;0.93;;;21.90;52.20;;;;;;6298297;28;20370;-69
2021/05/17 07:26:34;;;;;;;1.40;0.40;;;21.80;52.20;;;;;;6311501;28;20108;-64
2021/05/17 07:29:37;;;;;;;1.65;0.50;;;21.80;52.30;;;;;;6319773;28;20065;-65
2021/05/17 07:32:38;;;;;;;4.22;0.60;;;21.80;52.20;;;;;;6299594;28;20051;-65
2021/05/17 07:35:38;;;;;;;2.05;0.30;;;21.80;52.20;;;;;;6295962;28;20024;-64
2021/05/17 07:38:40;;;;;;;1.20;0.40;;;21.80;52.20;;;;;;6305069;28;20047;-65
2021/05/17 07:41:41;;;;;;;4.90;0.40;;;21.80;52.20;;;;;;6319653;28;20028;-65
2021/05/17 07:44:41;;;;;;;1.08;0.45;;;21.80;52.20;;;;;;6320463;28;20055;-65
2021/05/17 07:47:42;;;;;;;1.65;0.60;;;21.80;52.30;;;;;;6321065;28;20031;-65
2021/05/17 07:50:43;;;;;;;1.88;0.50;;;21.80;52.30;;;;;;6283111;28;20036;-65
2021/05/17 07:53:44;;;;;;;4.25;0.60;;;21.80;52.30;;;;;;6318054;28;20052;-64
2021/05/17 07:56:45;;;;;;;2.22;0.70;;;21.80;52.30;;;;;;6303625;28;20035;-64
2021/05/17 07:59:45;;;;;;;3.20;0.85;;;21.80;52.30;;;;;;6295171;28;20017;-65
2021/05/17 08:02:46;;;;;;;2.13;0.68;;;21.80;52.30;;;;;;6294001;28;20025;-64
2021/05/17 08:05:48;;;;;;;2.60;0.73;;;21.80;52.30;;;;;;6318534;28;20365;-65
2021/05/17 08:08:48;;;;;;;2.50;0.50;;;21.80;52.30;;;;;;6305836;28;20488;-65
2021/05/17 08:11:50;;;;;;;4.43;0.80;;;21.80;52.30;;;;;;6299352;28;20032;-65
2021/05/17 08:14:51;;;;;;;2.70;0.65;;;21.80;52.30;;;;;;6288767;28;20017;-64
2021/05/17 08:17:51;;;;;;;1.40;0.40;;;21.80;52.30;;;;;;6303071;28;20034;-64
2021/05/17 08:20:52;;;;;;;4.22;0.73;;;21.80;52.30;;;;;;6315311;28;20050;-65
2021/05/17 08:23:55;;;;;;;2.53;0.93;;;21.80;52.30;;;;;;6307520;28;20508;-64
2021/05/17 08:26:56;;;;;;;1.38;0.70;;;21.80;52.30;;;;;;6319760;28;20024;-64
2021/05/17 08:29:57;;;;;;;1.85;0.95;;;21.80;52.30;;;;;;6317006;28;20466;-65
2021/05/17 08:33:01;;;;;;;2.25;0.82;;;21.80;52.30;;;;;;6294883;28;20044;-65
2021/05/17 08:36:05;;;;;;;2.25;0.85;;;21.80;52.30;;;;;;6293393;28;20485;-64
2021/05/17 08:39:07;;;;;;;1.48;0.75;;;21.80;52.30;;;;;;6312584;28;20540;-65
2021/05/17 08:42:08;;;;;;;1.48;0.60;;;21.80;52.30;;;;;;6285117;28;20095;-64
2021/05/17 08:45:10;;;;;;;1.27;0.60;;;21.80;52.30;;;;;;6299498;28;20028;-64
2021/05/17 08:48:11;;;;;;;2.35;0.80;;;21.80;52.30;;;;;;6308041;28;20042;-64
2021/05/17 08:51:15;;;;;;;1.88;0.80;;;21.80;52.30;;;;;;6291139;28;20044;-64
2021/05/17 08:54:15;;;;;;;1.75;0.80;;;21.80;52.30;;;;;;6282926;28;20016;-64
2021/05/17 08:57:16;;;;;;;4.10;0.80;;;21.70;52.30;;;;;;6284525;28;20396;-63
2021/05/17 09:00:19;;;;;;;2.95;0.60;;;21.80;52.30;;;;;;6293573;28;20583;-64
2021/05/17 09:03:20;;;;;;;3.15;0.90;;;21.80;52.30;;;;;;6300162;28;20035;-65
2021/05/17 09:06:23;;;;;;;1.52;0.68;;;21.80;52.40;;;;;;6310076;28;20155;-64
2021/05/17 09:09:30;;;;;;;2.47;0.80;;;21.80;52.40;;;;;;6321214;28;20025;-64
2021/05/17 09:12:32;;;;;;;1.73;0.80;;;21.70;52.30;;;;;;6299746;28;20117;-64
2021/05/17 09:15:43;;;;;;;1.23;0.50;;;21.80;52.40;;;;;;6309197;28;20028;-65
2021/05/17 09:18:44;;;;;;;0.65;0.40;;;21.80;52.40;;;;;;6310212;28;20020;-65
2021/05/17 09:22:02;;;;;;;1.95;0.70;;;21.70;52.30;;;;;;6310180;28;20093;-65
2021/05/17 09:25:03;;;;;;;1.55;0.68;;;21.80;52.40;;;;;;6311895;28;20400;-65
2021/05/17 09:28:11;;;;;;;2.80;0.70;;;21.70;52.30;;;;;;6297310;28;20435;-64
2021/05/17 09:31:14;;;;;;;1.52;0.65;;;21.70;52.30;;;;;;6313090;28;20115;-65
2021/05/17 09:34:14;;;;;;;1.70;0.60;;;21.80;52.40;;;;;;6312428;28;20056;-64
2021/05/17 09:37:15;;;;;;;1.55;0.50;;;21.70;52.30;;;;;;6308782;28;20488;-67
2021/05/17 09:40:36;;;;;;;1.27;0.60;;;21.70;52.30;;;;;;6302965;28;20477;-64
2021/05/17 09:43:36;;;;;;;2.53;0.80;;;21.70;52.30;;;;;;6309737;28;20094;-67
2021/05/17 09:47:44;;;;;;;1.05;0.70;;;21.70;52.30;;;;;;6288950;28;20485;-67
2021/05/17 09:50:25;;;;;;;1.23;0.60;;;21.70;52.30;;;;;;6307619;28;20040;-66
2021/05/17 09:53:39;;;;;;;1.00;0.45;;;21.70;52.30;;;;;;6296687;28;20040;-69
2021/05/17 09:56:39;;;;;;;0.82;0.47;;;21.70;52.30;;;;;;6313243;28;20099;-66
2021/05/17 09:59:44;;;;;;;1.05;0.60;;;21.70;52.30;;;;;;6301605;28;20032;-67
2021/05/17 10:02:52;;;;;;;1.33;0.80;;;21.70;52.30;;;;;;6317146;28;20466;-67
2021/05/17 10:05:57;;;;;;;2.88;0.63;;;21.70;52.30;;;;;;6301810;28;20152;-67
2021/05/17 10:08:59;;;;;;;0.88;0.50;;;21.70;52.30;;;;;;6310786;28;20066;-67
2021/05/17 10:12:00;;;;;;;1.52;0.60;;;21.70;53.00;;;;;;6296937;28;20432;-65
2021/05/17 10:15:02;;;;;;;1.02;0.50;;;21.70;52.30;;;;;;6296331;28;20037;-70
2021/05/17 10:18:03;;;;;;;1.67;0.73;;;21.70;52.30;;;;;;6296632;28;20442;-70
2021/05/17 10:21:05;;;;;;;1.38;0.52;;;21.70;52.30;;;;;;6314536;28;20077;-70
2021/05/17 10:24:06;;;;;;;1.45;0.60;;;21.70;52.40;;;;;;6301027;28;20106;-71
2021/05/17 10:27:08;;;;;;;1.98;0.57;;;21.70;52.30;;;;;;6320562;28;20038;-71
2021/05/17 10:30:10;;;;;;;0.68;0.43;;;21.70;52.30;;;;;;6309311;28;20392;-71
2021/05/17 10:33:16;;;;;;;1.08;0.40;;;21.70;52.30;;;;;;6321756;28;20024;-71
2021/05/17 10:36:17;;;;;;;0.70;0.47;;;21.70;52.30;;;;;;6318585;28;20055;-71
2021/05/17 10:39:30;;;;;;;0.20;0.20;;;21.70;52.30;;;;;;6315603;28;20026;-70
2021/05/17 10:42:53;;;;;;;1.10;0.43;;;21.70;52.30;;;;;;6315083;28;20024;-69
2021/05/17 10:49:35;;;;;;;1.13;0.40;;;21.70;52.30;;;;;;6303406;28;20478;-69
2021/05/17 10:52:37;;;;;;;2.45;0.52;;;21.70;52.40;;;;;;6305412;28;20098;-71
2021/05/17 10:55:46;;;;;;;1.33;0.40;;;21.70;52.40;;;;;;6296821;28;20029;-68
2021/05/17 11:02:28;;;;;;;3.95;0.50;;;21.70;52.30;;;;;;6300008;28;20024;-69
2021/05/17 11:05:30;;;;;;;0.47;0.38;;;21.70;52.20;;;;;;6306568;28;20048;-69
2021/05/17 11:08:31;;;;;;;0.43;0.30;;;21.70;52.10;;;;;;6317345;28;20017;-70
2021/05/17 11:11:32;;;;;;;0.70;0.30;;;21.70;52.00;;;;;;6317618;28;20039;-71
2021/05/17 11:14:32;;;;;;;0.90;0.40;;;21.70;51.90;;;;;;6303234;28;20021;-71
2021/05/17 11:17:51;;;;;;;1.27;0.60;;;21.70;51.90;;;;;;6308015;28;20120;-69
2021/05/17 11:21:10;;;;;;;1.45;0.43;;;21.70;51.90;;;;;;6295952;28;20233;-68
2021/05/17 11:24:13;;;;;;;2.15;0.47;;;21.70;51.90;;;;;;6294776;28;20032;-68
2021/05/17 11:27:13;;;;;;;0.65;0.50;;;21.70;52.00;;;;;;6294284;28;20029;-67
2021/05/17 11:30:44;;;;;;;1.92;0.45;;;21.70;52.00;;;;;;6294482;28;20043;-68
2021/05/17 11:34:03;;;;;;;0.98;0.50;;;21.70;52.00;;;;;;6285271;28;20123;-66
2021/05/17 11:37:13;;;;;;;1.92;0.70;;;21.70;52.00;;;;;;6306698;28;20438;-67
2021/05/17 11:40:31;;;;;;;2.92;0.68;;;21.70;51.90;;;;;;6316089;28;20376;-67
2021/05/17 11:43:43;;;;;;;2.88;0.52;;;21.70;52.00;;;;;;6303327;28;20020;-66
2021/05/17 11:47:05;;;;;;;7.07;0.65;;;21.70;51.90;;;;;;6293732;28;20024;-66
2021/05/17 11:50:08;;;;;;;3.08;0.75;;;21.70;51.90;;;;;;6321094;28;20500;-66
2021/05/17 11:53:14;;;;;;;1.17;0.73;;;21.70;52.00;;;;;;6320895;28;20028;-66
2021/05/17 11:56:14;;;;;;;1.92;0.77;;;21.70;52.00;;;;;;6296837;28;20099;-66
2021/05/17 11:59:18;;;;;;;2.72;0.60;;;21.70;52.00;;;;;;6295961;28;20077;-66
2021/05/17 12:02:19;;;;;;;0.63;0.50;;;21.70;52.00;;;;;;6293951;28;20120;-66
2021/05/17 12:05:21;;;;;;;0.52;0.50;;;21.70;52.00;;;;;;6294376;28;20028;-66
2021/05/17 12:08:22;;;;;;;2.60;0.73;;;21.70;52.00;;;;;;6295190;28;20485;-66
2021/05/17 12:11:22;;;;;;;1.23;0.70;;;21.70;52.00;;;;;;6303057;28;20035;-66
2021/05/17 12:14:23;;;;;;;0.95;0.43;;;21.70;52.00;;;;;;6319532;28;20351;-66
2021/05/17 12:17:26;;;;;;;0.70;0.57;;;21.70;52.00;;;;;;6306470;28;20025;-66
2021/05/17 12:20:26;;;;;;;0.50;0.40;;;21.70;52.00;;;;;;6295117;28;20390;-66
2021/05/17 12:23:44;;;;;;;0.75;0.63;;;21.70;52.00;;;;;;6294479;28;20028;-66
2021/05/17 12:26:59;;;;;;;1.20;0.73;;;21.70;52.70;;;;;;6268418;28;20078;-66
2021/05/17 12:30:13;;;;;;;0.85;0.50;;;21.70;52.00;;;;;;6270624;28;20024;-66
2021/05/17 12:33:13;;;;;;;1.30;0.70;;;21.70;52.00;;;;;;6288043;28;20017;-66
2021/05/17 12:36:14;;;;;;;1.20;0.68;;;21.70;52.10;;;;;;6294246;28;20105;-66
2021/05/17 12:39:18;;;;;;;1.88;0.60;;;21.70;52.00;;;;;;6294561;28;20024;-66
2021/05/17 12:42:18;;;;;;;0.70;0.50;;;21.70;52.10;;;;;;6292934;28;20355;-66
2021/05/17 12:45:19;;;;;;;2.35;0.63;;;21.70;52.00;;;;;;6293414;28;20032;-66
2021/05/17 12:48:38;;;;;;;0.50;0.40;;;21.70;52.00;;;;;;6293626;28;20029;-66
2021/05/17 12:51:39;;;;;;;1.45;0.60;;;21.70;52.10;;;;;;6295203;28;20102;-66
2021/05/17 12:54:40;;;;;;;0.60;0.50;;;21.70;52.00;;;;;;6309080;28;20164;-66
2021/05/17 12:57:42;;;;;;;1.20;0.50;;;21.70;52.10;;;;;;6294681;28;20028;-66
2021/05/17 13:00:52;;;;;;;0.77;0.60;;;21.70;52.10;;;;;;6295106;28;20393;-66
2021/05/17 13:03:55;;;;;;;1.05;0.65;;;21.70;52.10;;;;;;6301865;28;20554;-66
2021/05/17 13:07:03;;;;;;;0.73;0.63;;;21.70;52.10;;;;;;6297081;28;20024;-66
2021/05/17 13:10:04;;;;;;;0.90;0.60;;;21.70;52.10;;;;;;6319371;28;20107;-66
2021/05/17 13:13:04;;;;;;;2.33;0.80;;;21.70;52.10;;;;;;6316225;28;20233;-66
2021/05/17 13:16:05;;;;;;;1.35;0.50;;;21.80;52.70;;;;;;6293454;28;20029;-67
2021/05/17 13:23:02;;;;;;;5.03;0.85;;;21.90;52.70;;;;;;6309298;28;20568;-67
2021/05/17 13:33:04;;;;;;;0.88;0.75;;;21.90;52.20;;;;;;6307644;28;20028;-68
2021/05/17 13:36:15;;;;;;;1.77;0.82;;;22.00;52.00;;;;;;6319394;28;20028;-68
2021/05/17 13:39:16;;;;;;;3.88;0.70;;;22.00;51.90;;;;;;6317810;28;20035;-68
2021/05/17 13:42:17;;;;;;;1.45;1.00;;;22.00;52.00;;;;;;6307348;28;20040;-68
2021/05/17 13:45:20;;;;;;;2.92;1.00;;;22.00;51.90;;;;;;6293145;28;20490;-69
2021/05/17 13:48:20;;;;;;;1.15;0.52;;;22.00;51.80;;;;;;6295557;28;20027;-67
2021/05/17 13:51:25;;;;;;;1.48;0.75;;;22.00;51.90;;;;;;6316672;28;20044;-68
2021/05/17 13:54:26;;;;;;;1.65;0.80;;;22.00;51.80;;;;;;6311498;28;20576;-69
2021/05/17 13:57:26;;;;;;;1.40;0.90;;;22.10;52.00;;;;;;6281042;28;20028;-68
2021/05/17 14:00:27;;;;;;;1.98;0.80;;;22.10;51.90;;;;;;6303042;28;20055;-68
2021/05/17 14:03:28;;;;;;;1.20;0.70;;;22.10;51.80;;;;;;6299314;28;20024;-68
2021/05/17 14:06:28;;;;;;;1.17;0.70;;;22.10;51.90;;;;;;6317852;28;20604;-68
2021/05/17 14:09:29;;;;;;;1.33;0.60;;;22.10;51.90;;;;;;6301282;28;20067;-68
2021/05/17 14:12:29;;;;;;;1.15;0.65;;;22.10;51.90;;;;;;6297794;28;20044;-68
2021/05/17 14:15:30;;;;;;;1.42;0.82;;;22.10;51.80;;;;;;6316158;28;20020;-67
2021/05/17 14:18:30;;;;;;;1.42;0.77;;;22.10;51.70;;;;;;6321360;28;20492;-67
2021/05/17 14:21:33;;;;;;;1.48;0.75;;;22.10;51.70;;;;;;6299382;28;20025;-68
2021/05/17 14:24:34;;;;;;;1.05;0.63;;;22.10;51.80;;;;;;6305281;28;20332;-68
2021/05/17 14:27:35;;;;;;;2.35;0.57;;;22.10;51.80;;;;;;6315180;28;20036;-68
2021/05/17 14:30:36;;;;;;;1.80;0.70;;;22.10;51.80;;;;;;6314722;28;20025;-68
2021/05/17 14:33:37;;;;;;;3.53;0.70;;;22.10;51.80;;;;;;6317844;28;20035;-68
2021/05/17 14:36:37;;;;;;;1.42;0.73;;;22.10;51.80;;;;;;6297944;28;20462;-68
2021/05/17 14:39:39;;;;;;;5.05;0.90;;;22.20;52.10;;;;;;6301858;28;20024;-68
2021/05/17 14:42:39;;;;;;;20.88;4.30;;;22.30;51.70;;;;;;6321730;28;20020;-68
2021/05/17 14:45:40;;;;;;;12.35;2.70;;;22.30;52.10;;;;;;6317531;28;20109;-67
2021/05/17 14:48:42;;;;;;;7.15;1.77;;;22.40;52.20;;;;;;6300837;28;20032;-68
2021/05/17 14:51:42;;;;;;;11.70;1.77;;;22.40;52.20;;;;;;6298710;28;20082;-68
2021/05/17 14:54:44;;;;;;;7.70;1.92;;;22.40;51.70;;;;;;6301521;28;20032;-67
2021/05/17 14:57:44;;;;;;;7.22;1.75;;;22.50;51.60;;;;;;6322294;28;20028;-68
2021/05/17 15:00:46;;;;;;;5.97;1.20;;;22.50;52.10;;;;;;6317453;28;20024;-67
2021/05/17 15:03:46;;;;;;;5.38;1.52;;;22.50;52.00;;;;;;6319602;28;20024;-67
2021/05/17 15:06:49;;;;;;;19.08;3.45;;;22.40;52.00;;;;;;6294403;28;20028;-67
2021/05/17 15:09:50;;;;;;;10.57;1.83;;;22.40;52.00;;;;;;6294431;28;20024;-67
2021/05/17 15:12:51;;;;;;;10.07;2.50;;;22.30;52.00;;;;;;6303652;28;20036;-67
2021/05/17 15:15:52;;;;;;;6.60;1.90;;;22.30;52.00;;;;;;6306209;28;20055;-67
2021/05/17 15:18:52;;;;;;;8.52;1.83;;;22.30;52.00;;;;;;6305795;28;20482;-67
2021/05/17 15:21:53;;;;;;;9.25;2.80;;;22.30;52.70;;;;;;6289969;28;20224;-66
2021/05/17 15:24:55;;;;;;;11.68;2.10;;;22.30;51.90;;;;;;6302002;28;20158;-66
2021/05/17 15:27:56;;;;;;;6.85;2.10;;;22.30;51.90;;;;;;6308929;28;20027;-65
2021/05/17 15:30:57;;;;;;;8.75;1.63;;;22.30;51.90;;;;;;6319947;28;20020;-66
2021/05/17 15:33:58;;;;;;;9.82;1.70;;;22.30;51.90;;;;;;6298897;28;20118;-68
2021/05/17 15:36:58;;;;;;;3.97;1.40;;;22.30;52.00;;;;;;6292381;28;20063;-66
2021/05/17 15:39:59;;;;;;;7.47;2.03;;;22.30;51.90;;;;;;6293268;28;20128;-67
2021/05/17 15:42:59;;;;;;;5.43;1.85;;;22.40;52.40;;;;;;6317023;28;20090;-67
2021/05/17 15:46:00;;;;;;;10.38;2.03;;;22.50;51.70;;;;;;6310494;28;20029;-67
2021/05/17 15:49:02;;;;;;;7.57;1.50;;;22.60;51.70;;;;;;6301767;28;20030;-67
2021/05/17 15:52:02;;;;;;;8.60;1.50;;;22.60;51.50;;;;;;6299787;28;20457;-66
2021/05/17 15:55:05;;;;;;;3.15;1.40;;;22.60;51.50;;;;;;6294254;28;20070;-67
2021/05/17 15:58:07;;;;;;;3.67;1.40;;;22.60;51.50;;;;;;6317182;28;20174;-67
2021/05/17 16:01:12;;;;;;;4.40;1.25;;;22.70;51.50;;;;;;6317798;28;20060;-66
2021/05/17 16:04:13;;;;;;;15.40;4.30;;;22.60;51.30;;;;;;6319673;28;20036;-66
2021/05/17 16:07:13;;;;;;;8.18;3.03;;;22.50;51.60;;;;;;6308370;28;20077;-66
2021/05/17 16:10:17;;;;;;;12.90;3.92;;;22.50;51.90;;;;;;6319762;28;20035;-65
2021/05/17 16:13:34;;;;;;;25.30;4.70;;;22.40;52.10;;;;;;6299555;28;20031;-66
2021/05/17 16:22:58;;;;;;;12.55;2.95;;;22.30;52.30;;;;;;6305101;28;20440;-66
2021/05/17 16:25:58;;;;;;;9.55;3.25;;;22.30;52.40;;;;;;6297621;28;20030;-66
2021/05/17 16:28:59;;;;;;;13.00;3.72;;;22.30;52.40;;;;;;6284417;28;20025;-66
2021/05/17 16:32:00;;;;;;;11.95;2.75;;;22.30;52.40;;;;;;6308464;28;20048;-66
2021/05/17 16:35:00;;;;;;;7.70;2.28;;;22.30;52.40;;;;;;6297918;28;20023;-66
2021/05/17 16:38:01;;;;;;;7.25;2.45;;;22.20;52.40;;;;;;6309713;28;20036;-65